Time;durP1;ratioP1;P1;durP2;ratioP2;P2;SDS_P1;SDS_P2;PMS_P1;PMS_P2;Temp;Humidity;BMP_temperature;BMP_pressure;BME280_temperature;BME280_humidity;BME280_pressure;Samples;Min_cycle;Max_cycle;Signal;HPM_P1;HPM_P2
2022/08/13 00:01:52;;;;;;;1.20;0.95;;;24.20;46.20;;;;;;6219366;28;20073;-66
2022/08/13 00:04:56;;;;;;;1.10;1.00;;;24.20;46.10;;;;;;6244642;28;20439;-66
2022/08/13 00:07:57;;;;;;;1.17;1.00;;;24.20;46.10;;;;;;6241930;28;20025;-66
2022/08/13 00:10:57;;;;;;;1.65;1.30;;;24.20;46.00;;;;;;6231473;28;20785;-66
2022/08/13 00:13:58;;;;;;;1.45;1.10;;;24.20;45.90;;;;;;6234277;28;20104;-66
2022/08/13 00:17:00;;;;;;;1.25;1.08;;;24.20;45.90;;;;;;6222022;28;20534;-66
2022/08/13 00:20:01;;;;;;;1.23;1.13;;;24.20;45.80;;;;;;6243240;28;20026;-66
2022/08/13 00:23:04;;;;;;;1.35;1.00;;;24.20;45.80;;;;;;6242960;28;20052;-66
2022/08/13 00:26:05;;;;;;;1.10;1.00;;;24.20;45.80;;;;;;6223135;28;20033;-66
2022/08/13 00:29:06;;;;;;;1.20;1.10;;;24.20;45.80;;;;;;6234468;28;20053;-66
2022/08/13 00:32:07;;;;;;;1.25;1.10;;;24.20;45.80;;;;;;6246293;28;20055;-66
2022/08/13 00:35:07;;;;;;;1.30;1.15;;;24.20;45.70;;;;;;6226186;28;20033;-66
2022/08/13 00:38:10;;;;;;;2.88;1.10;;;24.30;45.70;;;;;;6225798;28;20100;-66
2022/08/13 00:41:37;;;;;;;1.20;1.00;;;24.20;45.60;;;;;;6246842;28;20029;-67
2022/08/13 00:44:32;;;;;;;1.42;1.00;;;24.30;45.60;;;;;;6232875;28;20034;-66
2022/08/13 00:50:56;;;;;;;1.17;1.08;;;24.30;45.60;;;;;;6245560;28;20029;-66
2022/08/13 00:53:58;;;;;;;1.23;1.02;;;24.30;45.60;;;;;;6237792;28;20048;-66
2022/08/13 00:57:01;;;;;;;1.30;1.20;;;24.30;45.50;;;;;;6220729;28;20493;-66
2022/08/13 01:00:11;;;;;;;1.25;1.10;;;24.30;45.50;;;;;;6236950;28;20059;-66
2022/08/13 01:03:12;;;;;;;1.17;1.08;;;24.30;45.30;;;;;;6215303;28;20481;-66
2022/08/13 01:06:13;;;;;;;1.95;1.10;;;24.30;45.40;;;;;;6246323;28;20013;-67
2022/08/13 01:09:14;;;;;;;1.25;1.00;;;24.30;45.30;;;;;;6238263;28;20022;-66
2022/08/13 01:12:15;;;;;;;1.20;1.10;;;24.30;45.30;;;;;;6240714;28;20362;-66
2022/08/13 01:15:18;;;;;;;1.15;1.05;;;24.30;45.30;;;;;;6230159;28;20449;-66
2022/08/13 01:18:23;;;;;;;1.20;1.10;;;24.30;45.30;;;;;;6220398;28;20037;-66
2022/08/13 01:21:30;;;;;;;1.05;0.90;;;24.30;45.20;;;;;;6245419;28;20048;-66
2022/08/13 01:24:30;;;;;;;1.10;1.00;;;24.30;45.20;;;;;;6227515;28;20576;-66
2022/08/13 01:27:32;;;;;;;1.30;1.20;;;24.30;45.20;;;;;;6220513;28;20026;-66
2022/08/13 01:30:33;;;;;;;1.20;1.10;;;24.30;45.10;;;;;;6235735;28;20056;-66
2022/08/13 01:33:35;;;;;;;1.50;1.10;;;24.30;45.20;;;;;;6245371;28;20021;-66
2022/08/13 01:36:36;;;;;;;1.23;1.10;;;24.30;45.10;;;;;;6220276;28;20106;-66
2022/08/13 01:39:38;;;;;;;1.05;0.95;;;24.30;45.10;;;;;;6228219;28;20056;-66
2022/08/13 01:42:45;;;;;;;1.55;1.20;;;24.30;45.10;;;;;;6245580;28;20249;-66
2022/08/13 01:45:48;;;;;;;1.20;1.10;;;24.30;45.00;;;;;;6229791;28;20485;-67
2022/08/13 01:52:10;;;;;;;1.25;1.13;;;24.40;45.10;;;;;;6196344;28;20109;-66
2022/08/13 01:55:12;;;;;;;1.10;1.00;;;24.40;45.00;;;;;;6215758;28;20041;-66
2022/08/13 01:58:22;;;;;;;1.40;1.08;;;24.40;45.00;;;;;;6243802;28;20029;-66
2022/08/13 02:01:25;;;;;;;1.65;1.25;;;24.40;45.00;;;;;;6224712;28;20116;-66
2022/08/13 02:04:25;;;;;;;1.10;1.00;;;24.40;45.00;;;;;;6220773;28;20084;-66
2022/08/13 02:07:26;;;;;;;1.30;1.13;;;24.40;44.90;;;;;;6243977;28;20022;-66
2022/08/13 02:10:27;;;;;;;1.10;1.00;;;24.40;44.80;;;;;;6237855;28;20013;-66
2022/08/13 02:13:28;;;;;;;1.30;1.10;;;24.40;44.90;;;;;;6243717;28;20033;-66
2022/08/13 02:16:34;;;;;;;1.85;0.95;;;24.40;44.90;;;;;;6226318;28;20509;-66
2022/08/13 02:19:34;;;;;;;1.52;1.08;;;24.40;44.80;;;;;;6221140;28;20026;-66
2022/08/13 02:22:36;;;;;;;1.20;1.10;;;24.40;44.80;;;;;;6242652;28;20058;-66
2022/08/13 02:25:37;;;;;;;1.05;0.95;;;24.40;44.80;;;;;;6234635;28;20497;-66
2022/08/13 02:28:39;;;;;;;1.13;0.98;;;24.40;44.80;;;;;;6219708;28;20028;-67
2022/08/13 02:31:42;;;;;;;1.52;1.15;;;24.40;44.70;;;;;;6236628;28;20396;-67
2022/08/13 02:34:46;;;;;;;1.58;1.10;;;24.40;44.70;;;;;;6244638;28;20037;-67
2022/08/13 02:37:49;;;;;;;1.37;1.20;;;24.40;44.70;;;;;;6219343;28;20029;-66
2022/08/13 02:44:13;;;;;;;1.15;1.05;;;24.20;45.70;;;;;;6243994;28;20045;-67
2022/08/13 02:47:19;;;;;;;1.33;1.20;;;24.10;46.00;;;;;;6224033;28;20323;-66
2022/08/13 02:50:21;;;;;;;1.40;1.13;;;24.00;46.30;;;;;;6222503;28;20264;-66
2022/08/13 02:53:23;;;;;;;1.30;1.20;;;24.00;47.20;;;;;;6244031;28;20080;-67
2022/08/13 02:56:24;;;;;;;1.40;1.27;;;23.90;47.70;;;;;;6232444;28;20025;-66
2022/08/13 02:59:24;;;;;;;1.45;1.20;;;23.90;48.00;;;;;;6219476;28;20112;-66
2022/08/13 03:02:28;;;;;;;1.42;1.13;;;23.90;48.20;;;;;;6201873;28;20110;-66
2022/08/13 03:05:30;;;;;;;1.73;1.10;;;23.80;48.20;;;;;;6199553;28;20026;-66
2022/08/13 03:08:30;;;;;;;1.27;1.10;;;23.80;48.10;;;;;;6243930;28;20029;-67
2022/08/13 03:11:33;;;;;;;1.27;1.10;;;23.80;48.20;;;;;;6240651;28;20418;-66
2022/08/13 03:14:35;;;;;;;1.45;1.05;;;23.80;48.30;;;;;;6242342;28;20554;-67
2022/08/13 03:17:37;;;;;;;1.63;1.20;;;23.80;48.30;;;;;;6223576;28;20504;-67
2022/08/13 03:20:41;;;;;;;1.27;1.17;;;23.80;48.40;;;;;;6220118;28;20101;-67
2022/08/13 03:23:43;;;;;;;1.75;1.45;;;23.80;48.60;;;;;;6243469;28;20042;-66
2022/08/13 03:26:44;;;;;;;1.30;1.15;;;23.80;48.80;;;;;;6233537;28;20335;-66
2022/08/13 03:29:45;;;;;;;1.48;1.17;;;23.80;48.80;;;;;;6217958;28;20035;-66
2022/08/13 03:32:46;;;;;;;1.23;0.98;;;23.80;49.20;;;;;;6235278;28;20029;-67
2022/08/13 03:35:47;;;;;;;1.42;1.33;;;23.80;49.00;;;;;;6242564;28;20022;-66
2022/08/13 03:38:47;;;;;;;1.58;1.27;;;23.80;49.20;;;;;;6218984;28;20038;-67
2022/08/13 03:41:48;;;;;;;1.35;1.25;;;23.70;49.10;;;;;;6227225;28;20021;-66
2022/08/13 03:44:48;;;;;;;1.20;1.10;;;23.70;49.20;;;;;;6241744;28;20108;-66
2022/08/13 03:47:49;;;;;;;1.10;1.00;;;23.70;49.20;;;;;;6225955;28;20040;-66
2022/08/13 03:50:50;;;;;;;1.17;1.00;;;23.70;49.40;;;;;;6217669;28;20014;-66
2022/08/13 03:53:59;;;;;;;1.58;1.45;;;23.70;49.20;;;;;;6241194;28;20057;-66
2022/08/13 03:57:00;;;;;;;1.30;1.17;;;23.70;49.30;;;;;;6235196;28;20448;-67
2022/08/13 04:00:00;;;;;;;1.85;1.30;;;23.70;49.30;;;;;;6219510;28;20030;-67
2022/08/13 04:03:36;;;;;;;1.30;1.20;;;23.70;49.30;;;;;;6233098;28;20029;-66
2022/08/13 04:06:38;;;;;;;1.35;1.25;;;23.70;49.40;;;;;;6238650;28;20509;-67
2022/08/13 04:09:39;;;;;;;1.33;1.23;;;23.70;49.40;;;;;;6218865;28;20030;-66
2022/08/13 04:12:39;;;;;;;2.58;1.95;;;23.70;49.40;;;;;;6229746;28;20117;-67
2022/08/13 04:15:42;;;;;;;1.15;1.05;;;23.70;49.40;;;;;;6218387;28;20034;-67
2022/08/13 04:18:44;;;;;;;1.00;0.90;;;23.70;49.40;;;;;;6237435;28;20037;-66
2022/08/13 04:21:44;;;;;;;1.45;1.00;;;23.70;49.40;;;;;;6240929;28;20100;-67
2022/08/13 04:24:45;;;;;;;1.10;1.00;;;23.70;49.40;;;;;;6218189;28;20058;-66
2022/08/13 04:27:46;;;;;;;1.13;0.98;;;23.70;49.40;;;;;;6231036;28;20033;-66
2022/08/13 04:30:48;;;;;;;1.33;1.23;;;23.70;49.30;;;;;;6248171;28;20056;-67
2022/08/13 04:33:49;;;;;;;1.55;1.35;;;23.70;49.40;;;;;;6229428;28;20184;-66
2022/08/13 04:36:50;;;;;;;0.93;0.90;;;23.70;49.40;;;;;;6223146;28;20050;-67
2022/08/13 04:39:53;;;;;;;1.30;1.15;;;23.60;49.30;;;;;;6247082;28;20017;-66
2022/08/13 04:42:54;;;;;;;1.45;1.20;;;23.70;49.40;;;;;;6237376;28;20030;-66
2022/08/13 04:45:59;;;;;;;1.20;1.10;;;23.60;49.30;;;;;;6222088;28;20029;-66
2022/08/13 04:49:00;;;;;;;1.75;1.52;;;23.60;49.40;;;;;;6238327;28;20032;-67
2022/08/13 04:52:01;;;;;;;1.40;1.13;;;23.70;49.60;;;;;;6246454;28;20030;-67
2022/08/13 04:55:03;;;;;;;1.85;1.38;;;23.60;49.40;;;;;;6221905;28;20030;-67
2022/08/13 04:58:05;;;;;;;1.30;1.20;;;23.60;49.50;;;;;;6229693;28;20028;-66
2022/08/13 05:01:09;;;;;;;1.48;1.38;;;23.60;49.50;;;;;;6231079;28;20034;-66
2022/08/13 05:04:09;;;;;;;1.52;1.42;;;23.60;49.50;;;;;;6229770;28;20040;-67
2022/08/13 05:07:10;;;;;;;1.60;1.25;;;23.60;49.60;;;;;;6245274;28;20500;-67
2022/08/13 05:10:11;;;;;;;1.35;1.25;;;23.60;49.60;;;;;;6224028;28;20064;-66
2022/08/13 05:13:27;;;;;;;1.13;1.02;;;23.60;49.60;;;;;;6238643;28;20042;-67
2022/08/13 05:16:27;;;;;;;1.20;0.90;;;23.60;49.60;;;;;;6220135;28;20053;-66
2022/08/13 05:19:28;;;;;;;1.48;1.35;;;23.60;49.70;;;;;;6237515;28;20047;-66
2022/08/13 05:22:29;;;;;;;1.17;1.08;;;23.60;49.70;;;;;;6246355;28;20018;-66
2022/08/13 05:25:30;;;;;;;1.30;1.15;;;23.60;49.70;;;;;;6221457;28;20046;-66
2022/08/13 05:28:31;;;;;;;1.20;1.10;;;23.60;49.70;;;;;;6228854;28;20439;-66
2022/08/13 05:31:34;;;;;;;1.35;1.17;;;23.60;49.70;;;;;;6246085;28;20022;-67
2022/08/13 05:34:35;;;;;;;1.35;1.25;;;23.60;49.70;;;;;;6228784;28;20038;-66
2022/08/13 05:37:36;;;;;;;1.17;1.08;;;23.60;49.80;;;;;;6218937;28;20113;-66
2022/08/13 05:40:38;;;;;;;1.15;1.02;;;23.60;49.80;;;;;;6244643;28;20039;-67
2022/08/13 05:43:38;;;;;;;1.30;1.13;;;23.60;49.80;;;;;;6238898;28;20033;-67
2022/08/13 05:46:40;;;;;;;1.30;1.20;;;23.60;49.90;;;;;;6221169;28;20451;-67
2022/08/13 05:49:40;;;;;;;1.10;1.00;;;23.60;49.90;;;;;;6235461;28;20025;-67
2022/08/13 05:52:41;;;;;;;1.20;1.10;;;23.60;49.80;;;;;;6245639;28;20045;-67
2022/08/13 05:55:42;;;;;;;1.33;1.17;;;23.60;49.80;;;;;;6222766;28;20021;-67
2022/08/13 05:58:43;;;;;;;1.20;1.10;;;23.60;49.80;;;;;;6226116;28;20056;-67
2022/08/13 06:05:03;;;;;;;1.30;1.20;;;23.60;49.80;;;;;;6227466;28;20021;-66
2022/08/13 06:08:05;;;;;;;1.60;1.33;;;23.60;49.80;;;;;;6244198;28;20036;-67
2022/08/13 06:11:08;;;;;;;2.42;1.25;;;23.60;49.90;;;;;;6230475;28;20021;-67
2022/08/13 06:14:20;;;;;;;1.48;1.17;;;23.60;49.90;;;;;;6237349;28;20044;-67
2022/08/13 06:17:23;;;;;;;1.27;1.17;;;23.60;49.90;;;;;;6219521;28;20555;-67
2022/08/13 06:20:24;;;;;;;1.33;1.20;;;23.60;49.90;;;;;;6235262;28;20029;-67
2022/08/13 06:23:27;;;;;;;1.60;1.40;;;23.60;50.00;;;;;;6243108;28;20080;-67
2022/08/13 06:26:29;;;;;;;1.60;1.30;;;23.60;49.90;;;;;;6219399;28;20041;-67
2022/08/13 06:29:35;;;;;;;1.70;1.30;;;23.60;50.00;;;;;;6226062;28;20087;-67
2022/08/13 06:32:37;;;;;;;1.70;1.25;;;23.60;50.00;;;;;;6243845;28;20030;-67
2022/08/13 06:35:38;;;;;;;1.70;1.38;;;23.60;50.00;;;;;;6227502;28;20022;-67
2022/08/13 06:38:44;;;;;;;1.48;1.30;;;23.60;50.00;;;;;;6219573;28;20033;-66
2022/08/13 06:41:45;;;;;;;1.45;1.23;;;23.60;50.00;;;;;;6195139;28;20026;-67
2022/08/13 06:44:47;;;;;;;1.38;1.10;;;23.60;50.10;;;;;;6211096;28;20021;-67
2022/08/13 06:47:48;;;;;;;2.00;1.70;;;23.60;50.10;;;;;;6244034;28;20033;-67
2022/08/13 06:50:50;;;;;;;1.40;1.20;;;23.60;50.10;;;;;;6227106;28;20239;-66
2022/08/13 06:53:52;;;;;;;1.90;1.50;;;23.60;50.10;;;;;;6218692;28;20034;-67
2022/08/13 06:56:56;;;;;;;1.40;1.30;;;23.60;50.10;;;;;;6243043;28;20025;-67
2022/08/13 06:59:57;;;;;;;1.40;1.23;;;23.60;50.10;;;;;;6236792;28;20022;-67
2022/08/13 07:02:59;;;;;;;1.33;1.10;;;23.60;50.20;;;;;;6219439;28;20051;-67
2022/08/13 07:06:00;;;;;;;1.23;1.13;;;23.60;50.20;;;;;;6234460;28;20029;-67
2022/08/13 07:09:02;;;;;;;1.73;1.20;;;23.60;50.20;;;;;;6243839;28;20034;-67
2022/08/13 07:12:04;;;;;;;1.10;1.00;;;23.60;50.20;;;;;;6237930;28;20026;-67
2022/08/13 07:15:14;;;;;;;1.58;1.40;;;23.60;50.20;;;;;;6236921;28;20533;-67
2022/08/13 07:18:15;;;;;;;1.42;1.33;;;23.60;50.70;;;;;;6219655;28;20041;-66
2022/08/13 07:21:19;;;;;;;1.55;1.20;;;23.60;50.20;;;;;;6234069;28;20041;-66
2022/08/13 07:24:20;;;;;;;1.30;1.20;;;23.60;50.20;;;;;;6243084;28;20568;-66
2022/08/13 07:27:21;;;;;;;1.60;1.40;;;23.60;50.20;;;;;;6218250;28;20315;-66
2022/08/13 07:30:21;;;;;;;1.75;1.30;;;23.60;50.20;;;;;;6218210;28;20105;-67
2022/08/13 07:33:22;;;;;;;1.65;1.27;;;23.60;50.30;;;;;;6218717;28;20032;-67
2022/08/13 07:36:27;;;;;;;1.50;1.27;;;23.50;50.20;;;;;;6233159;28;20388;-68
2022/08/13 07:39:30;;;;;;;1.30;1.00;;;23.50;50.20;;;;;;6242618;28;20071;-66
2022/08/13 07:42:35;;;;;;;1.20;1.00;;;23.60;50.30;;;;;;6220008;28;20022;-67
2022/08/13 07:45:35;;;;;;;1.20;1.10;;;23.60;50.30;;;;;;6225156;28;20546;-66
2022/08/13 07:48:41;;;;;;;1.60;1.23;;;23.50;50.20;;;;;;6242895;28;20033;-66
2022/08/13 07:51:46;;;;;;;1.33;1.13;;;23.50;50.20;;;;;;6228469;28;20025;-67
2022/08/13 07:54:47;;;;;;;1.52;1.10;;;23.50;50.20;;;;;;6218044;28;20448;-67
2022/08/13 07:57:48;;;;;;;1.10;1.00;;;23.50;50.30;;;;;;6241030;28;20029;-66
2022/08/13 08:00:49;;;;;;;1.30;1.10;;;23.50;50.30;;;;;;6236464;28;20030;-67
2022/08/13 08:03:54;;;;;;;1.60;1.15;;;23.50;50.30;;;;;;6223666;28;20030;-66
2022/08/13 08:06:55;;;;;;;1.52;1.15;;;23.50;50.30;;;;;;6236342;28;20030;-67
2022/08/13 08:09:58;;;;;;;1.67;1.20;;;23.50;50.30;;;;;;6246323;28;20415;-66
2022/08/13 08:13:00;;;;;;;1.02;0.93;;;23.50;50.30;;;;;;6244115;28;20472;-67
2022/08/13 08:16:02;;;;;;;1.40;1.30;;;23.50;50.30;;;;;;6240898;28;20037;-68
2022/08/13 08:19:05;;;;;;;1.20;1.10;;;23.50;50.30;;;;;;6222205;28;20033;-67
2022/08/13 08:22:07;;;;;;;1.27;1.17;;;23.50;50.30;;;;;;6236437;28;20033;-66
2022/08/13 08:25:15;;;;;;;1.25;1.08;;;23.50;50.30;;;;;;6247021;28;20045;-66
2022/08/13 08:28:18;;;;;;;1.10;1.00;;;23.50;50.40;;;;;;6224904;28;20032;-67
2022/08/13 08:31:19;;;;;;;1.27;1.10;;;23.50;50.40;;;;;;6229183;28;20064;-67
2022/08/13 08:34:20;;;;;;;0.93;0.82;;;23.50;50.40;;;;;;6247028;28;20588;-67
2022/08/13 08:44:04;;;;;;;1.30;1.00;;;23.50;50.40;;;;;;6197752;28;20031;-66
2022/08/13 08:47:07;;;;;;;1.20;1.05;;;23.50;50.40;;;;;;6218657;28;20128;-67
2022/08/13 08:50:09;;;;;;;1.52;1.20;;;23.50;50.40;;;;;;6247051;28;20033;-66
2022/08/13 08:53:19;;;;;;;1.00;0.90;;;23.50;50.40;;;;;;6228503;28;20056;-67
2022/08/13 08:56:20;;;;;;;1.15;0.80;;;23.50;50.40;;;;;;6225117;28;20423;-66
2022/08/13 08:59:28;;;;;;;1.08;0.98;;;23.50;50.40;;;;;;6246071;28;20041;-67
2022/08/13 09:02:29;;;;;;;1.40;1.30;;;23.50;51.10;;;;;;6231482;28;20029;-67
2022/08/13 09:05:30;;;;;;;1.27;1.17;;;23.50;50.40;;;;;;6246369;28;20037;-67
2022/08/13 09:08:35;;;;;;;1.33;1.23;;;23.50;50.40;;;;;;6227482;28;20038;-66
2022/08/13 09:11:36;;;;;;;;;;;23.50;50.50;;;;;;6232506;28;20021;-68
2022/08/13 09:14:37;;;;;;;1.10;0.90;;;23.50;50.40;;;;;;6221882;28;19925;-66
2022/08/13 09:17:39;;;;;;;1.40;1.10;;;23.50;50.50;;;;;;6231922;28;20087;-67
2022/08/13 09:20:41;;;;;;;1.00;0.90;;;23.50;50.50;;;;;;6246395;28;20022;-67
2022/08/13 09:23:46;;;;;;;1.05;0.95;;;23.50;50.50;;;;;;6227053;28;20038;-67
2022/08/13 09:26:48;;;;;;;1.45;1.17;;;23.50;50.50;;;;;;6221574;28;20393;-66
2022/08/13 09:29:50;;;;;;;1.60;1.10;;;23.50;50.50;;;;;;6221895;28;20077;-67
2022/08/13 09:32:56;;;;;;;0.90;0.90;;;23.50;50.50;;;;;;6230923;28;20087;-66
2022/08/13 09:35:57;;;;;;;0.80;0.80;;;23.50;50.50;;;;;;6245628;28;20091;-68
2022/08/13 09:38:58;;;;;;;0.90;0.90;;;23.50;50.60;;;;;;6227123;28;20080;-66
2022/08/13 09:42:01;;;;;;;1.02;0.93;;;23.50;50.60;;;;;;6222832;28;20706;-66
2022/08/13 09:45:03;;;;;;;0.95;0.70;;;23.50;50.50;;;;;;6245192;28;20040;-66
2022/08/13 09:48:08;;;;;;;1.33;1.00;;;23.50;50.60;;;;;;6235894;28;20022;-66
2022/08/13 09:51:13;;;;;;;;;;;23.50;50.60;;;;;;6221145;28;20033;-66
2022/08/13 09:54:14;;;;;;;1.10;1.00;;;23.50;50.60;;;;;;6239883;28;19919;-66
2022/08/13 09:57:17;;;;;;;0.90;0.85;;;23.50;50.60;;;;;;6242528;28;20644;-66
2022/08/13 10:00:22;;;;;;;1.20;1.10;;;23.50;51.30;;;;;;6220431;28;20026;-66
2022/08/13 10:03:23;;;;;;;1.25;1.10;;;23.50;50.60;;;;;;6231033;28;20029;-66
2022/08/13 10:06:28;;;;;;;1.08;0.80;;;23.50;50.70;;;;;;6244655;28;20033;-66
2022/08/13 10:09:29;;;;;;;0.98;0.90;;;23.50;50.70;;;;;;6225936;28;20080;-66
2022/08/13 10:12:29;;;;;;;1.23;0.90;;;23.50;50.70;;;;;;6238739;28;20061;-66
2022/08/13 10:15:31;;;;;;;1.02;0.90;;;23.50;50.60;;;;;;6219864;28;20808;-66
2022/08/13 10:18:31;;;;;;;0.70;0.70;;;23.50;50.60;;;;;;6229803;28;20121;-67
2022/08/13 10:21:32;;;;;;;0.95;0.80;;;23.50;50.70;;;;;;6244826;28;20034;-66
2022/08/13 10:24:33;;;;;;;1.17;1.08;;;23.50;50.70;;;;;;6208144;28;20053;-65
2022/08/13 10:27:35;;;;;;;1.20;1.10;;;23.50;50.70;;;;;;6221364;28;20448;-66
2022/08/13 10:30:36;;;;;;;1.30;1.02;;;23.50;50.70;;;;;;6234090;28;20038;-67
2022/08/13 10:33:38;;;;;;;1.00;0.90;;;23.50;50.70;;;;;;6225919;28;20044;-67
2022/08/13 10:36:42;;;;;;;1.13;1.00;;;23.50;50.70;;;;;;6236613;28;20036;-67
2022/08/13 10:39:43;;;;;;;0.85;0.80;;;23.50;51.40;;;;;;6227932;28;20164;-67
2022/08/13 10:42:44;;;;;;;1.33;1.00;;;23.50;50.80;;;;;;6239944;28;20025;-67
2022/08/13 10:45:46;;;;;;;1.05;0.95;;;23.50;50.70;;;;;;6227748;28;20040;-67
2022/08/13 10:48:51;;;;;;;0.80;0.80;;;23.50;50.70;;;;;;6235301;28;20028;-67
2022/08/13 10:51:52;;;;;;;1.13;1.02;;;23.50;50.70;;;;;;6237295;28;20043;-67
2022/08/13 10:54:53;;;;;;;0.70;0.70;;;23.50;50.80;;;;;;6235394;28;20504;-67
2022/08/13 10:57:54;;;;;;;0.88;0.75;;;23.50;50.80;;;;;;6242751;28;20025;-67
2022/08/13 11:00:55;;;;;;;0.90;0.90;;;23.50;50.80;;;;;;6216656;28;20557;-67
2022/08/13 11:04:01;;;;;;;1.48;0.90;;;23.50;51.40;;;;;;6206923;28;20653;-67
2022/08/13 11:07:02;;;;;;;0.98;0.90;;;23.50;50.80;;;;;;6223879;28;20508;-67
2022/08/13 11:10:08;;;;;;;1.20;1.00;;;23.50;50.80;;;;;;6233421;28;20488;-67
2022/08/13 11:13:08;;;;;;;1.50;1.10;;;23.50;50.80;;;;;;6242817;28;20400;-67
2022/08/13 11:16:56;;;;;;;1.23;1.00;;;23.50;50.80;;;;;;6228140;28;20025;-67
2022/08/13 11:19:31;;;;;;;1.02;0.93;;;23.50;50.90;;;;;;6230430;28;20478;-67
2022/08/13 11:22:31;;;;;;;0.95;0.85;;;23.50;50.80;;;;;;6234947;28;20018;-67
2022/08/13 11:25:32;;;;;;;0.80;0.80;;;23.50;50.80;;;;;;6233323;28;20049;-67
2022/08/13 11:28:32;;;;;;;0.80;0.80;;;23.50;51.70;;;;;;6240687;28;20029;-67
2022/08/13 11:31:33;;;;;;;1.20;0.80;;;23.60;51.10;;;;;;6225643;28;20063;-67
2022/08/13 11:34:34;;;;;;;1.35;1.10;;;23.60;51.60;;;;;;6233923;28;20049;-68
2022/08/13 11:37:35;;;;;;;2.90;0.80;;;23.60;51.70;;;;;;6235938;28;20026;-67
2022/08/13 11:40:36;;;;;;;2.80;0.80;;;23.60;52.00;;;;;;6230356;28;20021;-67
2022/08/13 11:43:37;;;;;;;1.80;0.70;;;23.60;52.10;;;;;;6259533;28;20026;-67
2022/08/13 11:46:38;;;;;;;1.10;1.00;;;23.60;52.70;;;;;;6204778;28;20064;-67
2022/08/13 11:49:38;;;;;;;6.30;1.00;;;23.60;52.60;;;;;;6241064;28;20050;-67
2022/08/13 11:52:39;;;;;;;2.08;1.00;;;23.60;52.30;;;;;;6236215;28;20103;-67
2022/08/13 11:55:40;;;;;;;1.00;0.90;;;23.60;52.10;;;;;;6228705;28;20025;-66
2022/08/13 11:58:40;;;;;;;1.27;0.93;;;23.60;52.00;;;;;;6212157;28;20034;-67
2022/08/13 12:01:41;;;;;;;1.98;1.00;;;23.60;51.90;;;;;;6229306;28;20163;-67
2022/08/13 12:04:45;;;;;;;0.80;0.80;;;23.60;51.80;;;;;;6242651;28;20053;-67
2022/08/13 12:07:46;;;;;;;1.67;0.90;;;23.50;51.70;;;;;;6235452;28;20048;-67
2022/08/13 12:10:47;;;;;;;0.80;0.80;;;23.50;51.60;;;;;;6186292;28;20121;-67
2022/08/13 12:13:48;;;;;;;0.80;0.80;;;23.50;51.60;;;;;;6237455;28;20040;-67
2022/08/13 12:16:48;;;;;;;0.95;0.82;;;23.50;51.50;;;;;;6225085;28;20021;-67
2022/08/13 12:19:49;;;;;;;0.70;0.70;;;23.50;51.60;;;;;;6223741;28;20025;-67
2022/08/13 12:22:56;;;;;;;1.48;1.10;;;23.60;51.60;;;;;;6244927;28;20040;-67
2022/08/13 12:25:56;;;;;;;1.00;0.70;;;23.60;51.70;;;;;;6235992;28;20384;-67
2022/08/13 12:28:57;;;;;;;1.60;0.98;;;23.60;51.70;;;;;;6241974;28;20029;-67
2022/08/13 12:31:57;;;;;;;0.90;0.80;;;23.60;52.00;;;;;;6227741;28;20050;-67
2022/08/13 12:34:58;;;;;;;1.02;0.85;;;23.60;52.10;;;;;;6241771;28;20469;-67
2022/08/13 12:37:59;;;;;;;1.48;1.05;;;23.70;52.40;;;;;;6229073;28;20506;-67
2022/08/13 12:41:00;;;;;;;1.13;1.02;;;23.70;52.40;;;;;;6234393;28;20025;-67
2022/08/13 12:44:01;;;;;;;0.80;0.77;;;23.60;50.60;;;;;;6239028;28;20025;-67
2022/08/13 12:47:02;;;;;;;1.85;0.80;;;23.60;49.40;;;;;;6227006;28;20036;-66
2022/08/13 12:50:03;;;;;;;1.88;0.80;;;23.70;48.90;;;;;;6244784;28;20508;-67
2022/08/13 12:53:05;;;;;;;0.80;0.77;;;23.80;48.40;;;;;;6229238;28;20052;-68
2022/08/13 12:56:06;;;;;;;1.77;1.00;;;23.90;48.10;;;;;;6235915;28;20091;-68
2022/08/13 12:59:07;;;;;;;1.98;0.90;;;24.00;47.70;;;;;;6207677;28;20030;-68
2022/08/13 13:02:08;;;;;;;2.95;0.93;;;24.10;47.80;;;;;;6198435;28;20022;-67
2022/08/13 13:05:09;;;;;;;4.00;1.08;;;24.20;47.70;;;;;;6243373;28;20030;-68
2022/08/13 13:08:30;;;;;;;1.17;0.88;;;24.20;47.70;;;;;;6227420;28;20022;-68
2022/08/13 13:11:31;;;;;;;2.05;0.93;;;24.20;47.70;;;;;;6242736;28;20037;-68
2022/08/13 13:14:32;;;;;;;1.52;0.68;;;24.30;47.50;;;;;;6244684;28;20034;-68
2022/08/13 13:17:33;;;;;;;1.00;0.80;;;24.20;47.40;;;;;;6226158;28;20544;-68
2022/08/13 13:20:33;;;;;;;2.22;0.70;;;24.30;47.30;;;;;;6242593;28;20040;-68
2022/08/13 13:23:39;;;;;;;1.55;0.63;;;24.30;47.10;;;;;;6225858;28;20552;-68
2022/08/13 13:26:40;;;;;;;0.73;0.73;;;24.30;47.10;;;;;;6215806;28;20120;-68
2022/08/13 13:29:41;;;;;;;1.30;0.85;;;24.40;46.90;;;;;;6236317;28;20586;-68
2022/08/13 13:32:43;;;;;;;2.03;0.80;;;24.40;46.90;;;;;;6227379;28;20585;-68
2022/08/13 13:35:46;;;;;;;1.05;0.80;;;24.40;46.80;;;;;;6240736;28;20682;-68
2022/08/13 13:38:47;;;;;;;1.85;0.60;;;24.40;46.80;;;;;;6225490;28;20021;-68
2022/08/13 13:41:48;;;;;;;1.13;0.68;;;24.40;46.70;;;;;;6235787;28;20025;-67
2022/08/13 13:44:49;;;;;;;1.55;0.77;;;24.40;46.60;;;;;;6219220;28;20026;-67
2022/08/13 13:47:49;;;;;;;1.33;0.82;;;24.40;46.70;;;;;;6236119;28;20032;-67
2022/08/13 13:50:56;;;;;;;1.50;0.80;;;24.40;46.50;;;;;;6231439;28;20018;-67
2022/08/13 13:53:57;;;;;;;1.75;0.80;;;24.40;46.50;;;;;;6199614;28;20180;-67
2022/08/13 13:56:57;;;;;;;1.25;0.90;;;24.40;46.40;;;;;;6227288;28;20503;-67
2022/08/13 13:59:58;;;;;;;1.17;0.90;;;24.40;46.30;;;;;;6242354;28;20091;-67
2022/08/13 14:03:00;;;;;;;1.88;0.80;;;24.40;46.30;;;;;;6228367;28;20033;-68
2022/08/13 14:06:03;;;;;;;1.08;0.90;;;24.40;46.30;;;;;;6242767;28;20022;-67
2022/08/13 14:09:04;;;;;;;0.70;0.70;;;24.40;46.20;;;;;;6218176;28;20108;-67
2022/08/13 14:12:05;;;;;;;0.75;0.60;;;24.40;46.20;;;;;;6229349;28;20026;-67
2022/08/13 14:15:06;;;;;;;0.70;0.70;;;24.40;46.00;;;;;;6228489;28;20033;-67
2022/08/13 14:18:10;;;;;;;1.05;0.70;;;24.40;46.00;;;;;;6226871;28;20032;-67
2022/08/13 14:21:11;;;;;;;0.70;0.70;;;24.40;45.90;;;;;;6234732;28;20033;-67
2022/08/13 14:24:12;;;;;;;0.77;0.77;;;24.40;45.90;;;;;;6191992;28;20482;-67
2022/08/13 14:27:14;;;;;;;2.03;0.70;;;24.40;45.80;;;;;;6218781;28;20025;-67
2022/08/13 14:30:16;;;;;;;1.13;0.70;;;24.40;45.80;;;;;;6226637;28;20021;-67
2022/08/13 14:33:17;;;;;;;1.75;0.80;;;24.50;45.70;;;;;;6227534;28;20038;-67
2022/08/13 14:36:17;;;;;;;0.98;0.70;;;24.50;45.80;;;;;;6232673;28;20036;-67
2022/08/13 14:39:18;;;;;;;0.85;0.63;;;24.50;45.80;;;;;;6220184;28;20034;-67
2022/08/13 14:42:26;;;;;;;1.20;0.80;;;24.50;45.70;;;;;;6222343;28;20104;-67
2022/08/13 14:45:42;;;;;;;0.63;0.50;;;24.50;45.70;;;;;;6242218;28;20030;-67
2022/08/13 14:48:43;;;;;;;0.60;0.60;;;24.50;45.60;;;;;;6227134;28;20029;-66
2022/08/13 14:51:44;;;;;;;1.38;1.00;;;24.50;45.60;;;;;;6235773;28;20512;-67
2022/08/13 14:54:46;;;;;;;1.15;0.73;;;24.50;45.60;;;;;;6217876;28;20038;-67
2022/08/13 14:57:51;;;;;;;1.15;0.80;;;24.50;45.60;;;;;;6223706;28;20036;-67
2022/08/13 15:00:54;;;;;;;0.68;0.68;;;24.40;45.40;;;;;;6229849;28;20022;-67
2022/08/13 15:03:59;;;;;;;1.05;0.82;;;24.50;45.50;;;;;;6220872;28;20652;-67
2022/08/13 15:07:00;;;;;;;0.60;0.60;;;24.50;45.40;;;;;;6241100;28;20108;-67
2022/08/13 15:10:02;;;;;;;2.22;0.75;;;24.50;45.40;;;;;;6217792;28;20053;-66
2022/08/13 15:13:03;;;;;;;0.65;0.65;;;24.50;45.30;;;;;;6234272;28;20119;-67
2022/08/13 15:16:07;;;;;;;3.33;0.63;;;24.50;45.40;;;;;;6224064;28;20022;-67
2022/08/13 15:19:08;;;;;;;0.95;0.60;;;24.50;45.30;;;;;;6237461;28;20033;-67
2022/08/13 15:22:09;;;;;;;2.25;0.80;;;24.50;45.30;;;;;;6240203;28;20067;-67
2022/08/13 15:25:12;;;;;;;0.65;0.65;;;24.50;45.20;;;;;;6236721;28;20054;-67
2022/08/13 15:28:13;;;;;;;0.85;0.63;;;24.50;46.00;;;;;;6221202;28;20065;-68
2022/08/13 15:31:15;;;;;;;1.33;0.65;;;24.50;45.20;;;;;;6221585;28;20133;-67
2022/08/13 15:34:16;;;;;;;1.00;0.90;;;24.50;45.20;;;;;;6225955;28;20497;-68
2022/08/13 15:37:18;;;;;;;0.57;0.57;;;24.50;45.10;;;;;;6229461;28;20032;-67
2022/08/13 15:40:20;;;;;;;1.25;0.90;;;24.50;45.10;;;;;;6218459;28;20369;-67
2022/08/13 15:43:24;;;;;;;1.30;0.85;;;24.50;45.10;;;;;;6220388;28;20425;-67
2022/08/13 15:46:26;;;;;;;1.08;0.93;;;24.50;45.00;;;;;;6239747;28;20037;-66
2022/08/13 15:49:28;;;;;;;3.63;0.70;;;24.50;45.00;;;;;;6225679;28;20030;-67
2022/08/13 15:52:29;;;;;;;1.15;0.95;;;24.50;45.00;;;;;;6215563;28;20026;-67
2022/08/13 15:55:30;;;;;;;2.25;0.70;;;24.50;45.00;;;;;;6236406;28;20087;-67
2022/08/13 15:58:31;;;;;;;0.68;0.65;;;24.50;44.90;;;;;;6223716;28;20032;-67
2022/08/13 16:01:36;;;;;;;1.10;0.70;;;24.50;45.00;;;;;;6226382;28;20036;-67
2022/08/13 16:04:41;;;;;;;0.50;0.50;;;24.50;44.90;;;;;;6226937;28;20100;-66
2022/08/13 16:07:44;;;;;;;1.02;0.60;;;24.50;44.90;;;;;;6215509;28;20133;-67
2022/08/13 16:10:45;;;;;;;0.70;0.63;;;24.50;44.90;;;;;;6229875;28;20021;-67